createdAt,value
2022-09-25T00:00:50.953Z,1.25
2022-09-25T00:03:52.859Z,2.15
2022-09-25T00:06:55.947Z,2.92
2022-09-25T00:09:57.747Z,0.70
2022-09-25T00:13:00.084Z,0.95
2022-09-25T00:16:03.222Z,1.70
2022-09-25T00:19:23.875Z,0.70
2022-09-25T00:22:27.038Z,1.05
2022-09-25T00:25:28.927Z,1.20
2022-09-25T00:28:32.329Z,4.38
2022-09-25T00:31:35.281Z,1.75
2022-09-25T00:34:41.292Z,0.57
2022-09-25T00:37:43.494Z,1.30
2022-09-25T00:40:47.219Z,0.98
2022-09-25T00:43:52.051Z,0.57
2022-09-25T00:46:57.078Z,0.80
2022-09-25T00:50:01.808Z,0.65
2022-09-25T00:53:09.456Z,0.93
2022-09-25T00:56:12.867Z,0.60
2022-09-25T00:59:18.603Z,0.82
2022-09-25T01:02:26.111Z,1.33
2022-09-25T01:05:32.137Z,0.80
2022-09-25T01:08:35.069Z,1.77
2022-09-25T01:11:36.888Z,3.55
2022-09-25T01:14:40.004Z,1.02
2022-09-25T01:18:03.142Z,0.77
2022-09-25T01:21:20.702Z,0.47
2022-09-25T01:24:42.258Z,0.85
2022-09-25T01:27:50.209Z,0.60
2022-09-25T01:30:54.762Z,0.35
2022-09-25T01:34:01.102Z,0.30
2022-09-25T01:37:10.174Z,2.72
2022-09-25T01:40:18.394Z,0.40
2022-09-25T01:43:24.624Z,0.95
2022-09-25T01:46:35.178Z,1.50
2022-09-25T01:49:42.559Z,0.68
2022-09-25T01:52:49.481Z,1.35
2022-09-25T01:55:55.815Z,0.65
2022-09-25T02:02:10.483Z,0.57
2022-09-25T02:05:43.390Z,0.88
2022-09-25T02:09:16.112Z,0.47
2022-09-25T02:12:25.513Z,0.40
2022-09-25T02:15:33.826Z,1.33
2022-09-25T02:18:56.273Z,9.63
2022-09-25T02:22:15.473Z,1.05
2022-09-25T02:25:26.448Z,0.57
2022-09-25T02:28:29.224Z,0.50
2022-09-25T02:31:53.750Z,0.52
2022-09-25T02:34:58.017Z,0.47
2022-09-25T02:38:00.277Z,1.05
2022-09-25T02:41:26.393Z,0.28
2022-09-25T02:44:28.197Z,1.00
2022-09-25T02:47:43.080Z,1.38
2022-09-25T02:51:11.653Z,1.85
2022-09-25T02:54:21.237Z,0.55
2022-09-25T02:57:38.828Z,0.88
2022-09-25T03:03:45.910Z,0.75
2022-09-25T03:06:48.067Z,0.40
2022-09-25T03:09:52.055Z,0.50
2022-09-25T03:12:53.822Z,1.30
2022-09-25T03:16:06.507Z,0.45
2022-09-25T03:19:08.538Z,1.08
2022-09-25T03:22:10.377Z,1.73
2022-09-25T03:25:12.177Z,1.55
2022-09-25T03:28:15.212Z,5.28
2022-09-25T03:31:17.376Z,2.17
2022-09-25T03:34:20.048Z,2.17
2022-09-25T03:37:25.463Z,5.63
2022-09-25T03:40:28.037Z,3.60
2022-09-25T03:43:33.886Z,3.70
2022-09-25T03:46:36.370Z,1.52
2022-09-25T03:49:38.521Z,1.88
2022-09-25T03:52:40.476Z,0.98
2022-09-25T03:55:42.807Z,0.68
2022-09-25T03:58:45.028Z,1.08
2022-09-25T04:01:47.527Z,0.20
2022-09-25T04:04:50.510Z,1.08
2022-09-25T04:07:52.678Z,2.10
2022-09-25T04:11:04.855Z,1.63
2022-09-25T04:14:06.843Z,0.50
2022-09-25T04:17:08.690Z,0.40
2022-09-25T04:20:10.419Z,0.38
2022-09-25T04:23:13.093Z,0.22
2022-09-25T04:26:14.837Z,1.67
2022-09-25T04:29:18.021Z,1.48
2022-09-25T04:32:38.901Z,0.82
2022-09-25T04:35:41.683Z,0.28
2022-09-25T04:38:44.350Z,1.00
2022-09-25T04:41:46.545Z,0.10
2022-09-25T04:44:49.379Z,1.45
2022-09-25T04:47:51.417Z,0.57
2022-09-25T04:50:53.402Z,0.95
2022-09-25T04:53:56.441Z,1.48
2022-09-25T04:56:59.055Z,1.63
2022-09-25T05:00:02.697Z,1.45
2022-09-25T05:03:05.596Z,1.05
2022-09-25T05:06:10.941Z,1.95
2022-09-25T05:09:12.702Z,0.93
2022-09-25T05:12:15.034Z,1.30
2022-09-25T05:15:17.208Z,1.13
2022-09-25T05:18:21.775Z,0.95
2022-09-25T05:21:24.553Z,0.30
2022-09-25T05:24:26.661Z,2.92
2022-09-25T05:27:34.993Z,2.05
2022-09-25T05:30:39.522Z,0.43
2022-09-25T05:33:41.969Z,0.10
2022-09-25T05:36:43.777Z,0.45
2022-09-25T05:39:46.479Z,0.57
2022-09-25T05:42:49.356Z,0.95
2022-09-25T05:45:57.994Z,1.02
2022-09-25T05:49:01.326Z,1.17
2022-09-25T05:52:04.449Z,1.20
2022-09-25T05:55:08.219Z,0.57
2022-09-25T05:58:10.803Z,2.92
2022-09-25T06:01:14.407Z,0.63
2022-09-25T06:04:17.242Z,2.15
2022-09-25T06:07:19.712Z,1.10
2022-09-25T06:10:22.371Z,0.52
2022-09-25T06:13:25.986Z,1.38
2022-09-25T06:16:29.559Z,0.20
2022-09-25T06:19:32.930Z,0.90
2022-09-25T06:22:35.103Z,0.10
2022-09-25T06:25:38.677Z,0.40
2022-09-25T06:28:41.210Z,0.98
2022-09-25T06:31:43.566Z,1.00
2022-09-25T06:34:45.965Z,0.85
2022-09-25T06:37:48.669Z,0.40
2022-09-25T06:40:51.480Z,0.52
2022-09-25T06:43:53.418Z,1.02
2022-09-25T06:46:55.535Z,1.70
2022-09-25T06:49:58.221Z,1.08
2022-09-25T06:53:01.169Z,1.50
2022-09-25T06:56:03.726Z,3.20
2022-09-25T06:59:15.389Z,1.88
2022-09-25T07:02:37.265Z,2.33
2022-09-25T07:05:42.728Z,0.15
2022-09-25T07:08:45.752Z,2.08
2022-09-25T07:11:51.167Z,1.85
2022-09-25T07:14:53.816Z,0.55
2022-09-25T07:17:56.157Z,1.40
2022-09-25T07:21:06.899Z,0.75
2022-09-25T07:24:10.338Z,0.73
2022-09-25T07:27:12.604Z,1.65
2022-09-25T07:30:15.507Z,0.70
2022-09-25T07:33:17.723Z,0.88
2022-09-25T07:36:21.759Z,0.43
2022-09-25T07:39:23.748Z,0.50
2022-09-25T07:42:26.143Z,3.08
2022-09-25T07:45:28.767Z,0.98
2022-09-25T07:48:34.261Z,1.90
2022-09-25T07:51:36.239Z,0.20
2022-09-25T07:54:39.680Z,1.48
2022-09-25T07:57:44.036Z,1.42
2022-09-25T08:00:45.978Z,0.32
2022-09-25T08:03:48.889Z,0.20
2022-09-25T08:06:50.751Z,0.25
2022-09-25T08:09:52.904Z,0.50
2022-09-25T08:12:54.851Z,0.17
2022-09-25T08:15:57.240Z,1.08
2022-09-25T08:18:59.274Z,0.98
2022-09-25T08:22:01.832Z,0.22
2022-09-25T08:25:04.173Z,1.15
2022-09-25T08:28:06.664Z,0.95
2022-09-25T08:31:09.024Z,0.55
2022-09-25T08:34:39.035Z,0.75
2022-09-25T08:37:33.171Z,1.20
2022-09-25T08:40:45.749Z,0.35
2022-09-25T08:44:10.732Z,0.47
2022-09-25T08:47:43.684Z,1.05
2022-09-25T08:50:45.939Z,1.45
2022-09-25T08:53:48.331Z,1.10
2022-09-25T08:56:56.750Z,1.33
2022-09-25T09:00:04.303Z,0.35
2022-09-25T09:03:06.891Z,1.05
2022-09-25T09:06:13.378Z,0.63
2022-09-25T09:09:19.377Z,0.30
2022-09-25T09:12:34.705Z,0.37
2022-09-25T09:15:59.606Z,0.68
2022-09-25T09:19:04.146Z,0.77
2022-09-25T09:22:14.215Z,0.60
2022-09-25T09:26:05.288Z,0.28
2022-09-25T09:29:34.497Z,0.17
2022-09-25T09:32:36.607Z,0.88
2022-09-25T09:35:57.277Z,0.43
2022-09-25T09:39:03.226Z,0.60
2022-09-25T09:42:10.286Z,0.47
2022-09-25T09:48:17.333Z,0.40
2022-09-25T09:51:23.873Z,0.40
2022-09-25T09:54:47.205Z,0.85
2022-09-25T09:57:52.717Z,0.30
2022-09-25T10:00:55.258Z,0.38
2022-09-25T10:04:17.676Z,0.30
2022-09-25T10:07:22.887Z,0.60
2022-09-25T10:10:34.032Z,0.50
2022-09-25T10:13:40.134Z,0.63
2022-09-25T10:16:42.191Z,0.30
2022-09-25T10:19:57.632Z,0.38
2022-09-25T10:23:01.209Z,0.60
2022-09-25T10:26:03.177Z,0.85
2022-09-25T10:29:27.988Z,0.35
2022-09-25T10:32:30.815Z,0.32
2022-09-25T10:35:39.498Z,0.73
2022-09-25T10:38:48.707Z,2.40
2022-09-25T10:41:53.117Z,0.73
2022-09-25T10:44:58.059Z,0.73
2022-09-25T10:48:20.311Z,0.93
2022-09-25T10:51:22.666Z,0.70
2022-09-25T10:54:24.694Z,0.50
2022-09-25T10:57:35.788Z,1.92
2022-09-25T11:00:54.527Z,0.43
2022-09-25T11:03:57.741Z,0.70
2022-09-25T11:07:07.381Z,1.02
2022-09-25T11:10:20.156Z,1.38
2022-09-25T11:13:46.689Z,0.73
2022-09-25T11:16:53.851Z,1.98
2022-09-25T11:20:21.438Z,1.23
2022-09-25T11:23:46.142Z,1.67
2022-09-25T11:27:11.436Z,0.65
2022-09-25T11:30:17.641Z,1.10
2022-09-25T11:33:49.352Z,1.50
2022-09-25T11:37:07.420Z,1.65
2022-09-25T11:40:46.174Z,1.02
2022-09-25T11:44:09.953Z,3.63
2022-09-25T11:47:27.821Z,1.73
2022-09-25T11:50:45.608Z,0.85
2022-09-25T11:53:53.357Z,1.45
2022-09-25T11:57:15.972Z,1.80
2022-09-25T12:00:26.722Z,1.00
2022-09-25T12:03:37.499Z,0.85
2022-09-25T12:06:56.367Z,3.38
2022-09-25T12:10:36.802Z,0.85
2022-09-25T12:13:50.480Z,0.65
2022-09-25T12:17:10.999Z,0.45
2022-09-25T12:20:34.640Z,0.73
2022-09-25T12:24:04.736Z,1.20
2022-09-25T12:27:27.719Z,1.17
2022-09-25T12:34:09.969Z,1.83
2022-09-25T12:37:44.015Z,1.00
2022-09-25T12:41:04.888Z,0.40
2022-09-25T12:44:18.189Z,1.35
2022-09-25T12:47:33.651Z,0.77
2022-09-25T12:51:15.941Z,1.48
2022-09-25T12:54:18.176Z,1.15
2022-09-25T12:57:42.113Z,1.52
2022-09-25T13:00:51.587Z,1.88
2022-09-25T13:04:15.513Z,1.95
2022-09-25T13:08:03.451Z,0.47
2022-09-25T13:11:32.304Z,0.75
2022-09-25T13:14:43.295Z,0.40
2022-09-25T13:17:45.684Z,0.85
2022-09-25T13:20:57.063Z,2.42
2022-09-25T13:24:04.330Z,1.95
2022-09-25T13:27:20.401Z,0.98
2022-09-25T13:30:29.792Z,0.85
2022-09-25T13:33:54.033Z,0.52
2022-09-25T13:36:57.147Z,1.98
2022-09-25T13:40:20.651Z,0.47
2022-09-25T13:43:34.875Z,1.63
2022-09-25T13:49:55.083Z,2.60
2022-09-25T13:53:23.378Z,0.95
2022-09-25T13:56:29.191Z,1.13
2022-09-25T13:59:38.589Z,1.33
2022-09-25T14:02:47.452Z,3.03
2022-09-25T14:05:53.365Z,5.93
2022-09-25T14:09:15.020Z,4.03
2022-09-25T14:12:27.192Z,10.90
2022-09-25T14:15:38.419Z,7.18
2022-09-25T14:18:51.327Z,4.32
2022-09-25T14:21:57.865Z,6.15
2022-09-25T14:25:01.392Z,8.68
2022-09-25T14:28:20.998Z,7.45
2022-09-25T14:31:32.539Z,6.18
2022-09-25T14:35:05.081Z,7.20
2022-09-25T14:38:36.198Z,3.58
2022-09-25T14:41:47.123Z,2.55
2022-09-25T14:45:31.395Z,5.05
2022-09-25T14:48:47.021Z,2.80
2022-09-25T14:51:54.887Z,4.60
2022-09-25T14:55:01.003Z,4.68
2022-09-25T14:58:03.663Z,3.03
2022-09-25T15:01:32.707Z,3.25
2022-09-25T15:04:41.604Z,3.42
2022-09-25T15:07:46.093Z,2.30
2022-09-25T15:10:48.773Z,3.42
2022-09-25T15:13:55.813Z,4.18
2022-09-25T15:17:16.576Z,2.92
2022-09-25T15:20:23.355Z,3.17
2022-09-25T15:23:31.749Z,3.78
2022-09-25T15:26:50.075Z,3.10
2022-09-25T15:29:52.809Z,5.18
2022-09-25T15:33:00.535Z,4.38
2022-09-25T15:36:20.968Z,3.20
2022-09-25T15:39:28.955Z,4.45
2022-09-25T15:42:31.354Z,3.55
2022-09-25T15:45:38.139Z,5.38
2022-09-25T15:52:02.291Z,5.15
2022-09-25T15:55:16.978Z,3.33
2022-09-25T15:58:29.373Z,3.55
2022-09-25T16:01:55.420Z,3.55
2022-09-25T16:04:57.999Z,4.00
2022-09-25T16:08:25.308Z,4.15
2022-09-25T16:11:33.006Z,3.33
2022-09-25T16:14:35.909Z,3.97
2022-09-25T16:17:44.008Z,4.10
2022-09-25T16:21:29.097Z,3.58
2022-09-25T16:24:34.339Z,3.92
2022-09-25T16:27:39.513Z,8.30
2022-09-25T16:31:10.831Z,4.90
2022-09-25T16:34:25.895Z,8.98
2022-09-25T16:37:33.505Z,3.95
2022-09-25T16:40:38.971Z,4.63
2022-09-25T16:43:44.488Z,5.30
2022-09-25T16:47:13.322Z,5.90
2022-09-25T16:50:15.879Z,4.20
2022-09-25T16:53:19.063Z,4.90
2022-09-25T16:56:26.173Z,5.18
2022-09-25T16:59:29.388Z,5.20
2022-09-25T17:02:40.024Z,3.90
2022-09-25T17:05:44.287Z,3.38
2022-09-25T17:08:53.164Z,3.60
2022-09-25T17:12:08.844Z,3.60
2022-09-25T17:15:24.187Z,3.97
2022-09-25T17:18:26.481Z,3.53
2022-09-25T17:21:28.968Z,4.32
2022-09-25T17:24:31.681Z,4.18
2022-09-25T17:27:33.938Z,5.20
2022-09-25T17:30:37.722Z,5.35
2022-09-25T17:33:40.696Z,6.45
2022-09-25T17:36:43.267Z,5.25
2022-09-25T17:39:46.529Z,7.72
2022-09-25T17:42:48.387Z,8.48
2022-09-25T17:45:51.189Z,9.50
2022-09-25T17:48:54.837Z,14.32
2022-09-25T17:51:59.972Z,6.35
2022-09-25T17:55:03.121Z,5.78
2022-09-25T17:58:10.191Z,6.75
2022-09-25T18:04:31.879Z,6.10
2022-09-25T18:07:34.794Z,5.90
2022-09-25T18:10:44.821Z,8.43
2022-09-25T18:13:47.494Z,5.55
2022-09-25T18:16:49.598Z,4.35
2022-09-25T18:20:11.584Z,8.52
2022-09-25T18:23:19.316Z,11.07
2022-09-25T18:26:31.936Z,10.25
2022-09-25T18:29:38.615Z,12.52
2022-09-25T18:32:40.950Z,11.18
2022-09-25T18:35:46.136Z,7.32
2022-09-25T18:38:49.909Z,8.85
2022-09-25T18:41:52.807Z,8.63
2022-09-25T18:44:55.809Z,7.50
2022-09-25T18:47:58.818Z,10.30
2022-09-25T18:51:07.382Z,5.15
2022-09-25T18:54:15.710Z,5.07
2022-09-25T18:57:18.922Z,5.80
2022-09-25T19:00:21.171Z,9.32
2022-09-25T19:03:23.676Z,16.83
2022-09-25T19:06:27.162Z,24.73
2022-09-25T19:09:35.866Z,32.50
2022-09-25T19:12:40.676Z,22.03
2022-09-25T19:15:44.944Z,33.40
2022-09-25T19:18:51.333Z,27.83
2022-09-25T19:21:54.130Z,16.77
2022-09-25T19:24:57.797Z,11.20
2022-09-25T19:28:00.927Z,10.05
2022-09-25T19:31:22.201Z,11.48
2022-09-25T19:34:27.851Z,19.05
2022-09-25T19:37:32.955Z,12.73
2022-09-25T19:40:39.005Z,12.90
2022-09-25T19:43:44.912Z,14.00
2022-09-25T19:46:48.087Z,14.65
2022-09-25T19:49:51.583Z,15.48
2022-09-25T19:52:55.277Z,15.93
2022-09-25T19:55:57.539Z,15.10
2022-09-25T19:58:59.808Z,11.13
2022-09-25T20:02:03.471Z,14.68
2022-09-25T20:05:06.988Z,25.23
2022-09-25T20:08:09.387Z,16.48
2022-09-25T20:11:12.781Z,12.45
2022-09-25T20:14:14.751Z,13.73
2022-09-25T20:17:16.834Z,10.55
2022-09-25T20:20:19.353Z,6.28
2022-09-25T20:23:21.419Z,7.32
2022-09-25T20:26:24.418Z,29.25
2022-09-25T20:29:26.590Z,12.07
2022-09-25T20:32:28.744Z,22.42
2022-09-25T20:35:31.064Z,19.67
2022-09-25T20:38:33.989Z,15.70
2022-09-25T20:41:36.474Z,15.40
2022-09-25T20:44:38.460Z,18.55
2022-09-25T20:47:45.809Z,9.52
2022-09-25T20:50:52.189Z,9.77
2022-09-25T20:53:59.658Z,8.02
2022-09-25T20:57:01.627Z,15.10
2022-09-25T21:00:04.579Z,17.45
2022-09-25T21:03:06.815Z,12.00
2022-09-25T21:06:12.631Z,12.77
2022-09-25T21:09:25.959Z,9.95
2022-09-25T21:12:28.511Z,9.52
2022-09-25T21:15:32.068Z,11.05
2022-09-25T21:18:36.061Z,15.45
2022-09-25T21:21:39.551Z,9.40
2022-09-25T21:24:47.707Z,9.18
2022-09-25T21:27:57.541Z,6.72
2022-09-25T21:31:17.726Z,7.50
2022-09-25T21:34:21.143Z,11.60
2022-09-25T21:37:27.814Z,9.15
2022-09-25T21:40:37.407Z,8.88
2022-09-25T21:43:41.482Z,5.60
2022-09-25T21:46:45.652Z,8.68
2022-09-25T21:49:47.849Z,7.25
2022-09-25T21:52:50.594Z,4.45
2022-09-25T21:56:04.247Z,4.03
2022-09-25T21:59:12.191Z,5.20
2022-09-25T22:02:15.376Z,5.10
2022-09-25T22:05:17.625Z,4.70
2022-09-25T22:08:21.495Z,3.67
2022-09-25T22:11:24.539Z,5.53
2022-09-25T22:14:26.942Z,6.95
2022-09-25T22:17:29.489Z,5.57
2022-09-25T22:20:33.534Z,6.47
2022-09-25T22:23:36.058Z,5.03
2022-09-25T22:26:41.399Z,5.53
2022-09-25T22:29:44.132Z,4.43
2022-09-25T22:32:46.466Z,15.48
2022-09-25T22:35:48.623Z,5.03
2022-09-25T22:38:50.935Z,6.18
2022-09-25T22:41:55.334Z,7.40
2022-09-25T22:44:57.585Z,4.57
2022-09-25T22:48:00.605Z,4.35
2022-09-25T22:51:08.396Z,3.78
2022-09-25T22:54:14.017Z,3.80
2022-09-25T22:57:16.220Z,2.55
2022-09-25T23:00:18.136Z,2.60
2022-09-25T23:03:22.443Z,2.63
2022-09-25T23:06:27.200Z,3.35
2022-09-25T23:09:28.953Z,1.85
2022-09-25T23:12:31.172Z,1.77
2022-09-25T23:15:33.638Z,2.05
2022-09-25T23:18:36.633Z,3.28
2022-09-25T23:21:38.485Z,3.30
2022-09-25T23:24:40.190Z,4.75
2022-09-25T23:27:42.104Z,3.72
2022-09-25T23:30:43.947Z,4.25
2022-09-25T23:33:46.140Z,3.63
2022-09-25T23:36:48.264Z,3.28
2022-09-25T23:39:51.296Z,3.70
2022-09-25T23:42:54.598Z,3.60
2022-09-25T23:45:56.489Z,2.47
2022-09-25T23:48:59.393Z,3.17
2022-09-25T23:52:01.438Z,2.58
2022-09-25T23:55:03.711Z,3.03
2022-09-25T23:58:06.082Z,2.28
